Time;durP1;ratioP1;P1;durP2;ratioP2;P2;SDS_P1;SDS_P2;PMS_P1;PMS_P2;Temp;Humidity;BMP_temperature;BMP_pressure;BME280_temperature;BME280_humidity;BME280_pressure;Samples;Min_cycle;Max_cycle;Signal;HPM_P1;HPM_P2
2021/04/28 00:00:34;;;;;;;8.98;4.30;;;;;;;2.58;100.00;97019.41;5019204;28;20128;-77
2021/04/28 00:03:08;;;;;;;9.52;4.68;;;;;;;2.63;100.00;97008.69;5052687;28;20052;-76
2021/04/28 00:05:35;;;;;;;10.27;4.43;;;;;;;2.64;100.00;97015.59;5055991;28;20052;-76
2021/04/28 00:08:02;;;;;;;12.73;4.35;;;;;;;2.56;100.00;97010.84;5055061;28;20377;-77
2021/04/28 00:10:31;;;;;;;10.45;4.47;;;;;;;2.47;100.00;97006.13;5074859;28;20059;-76
2021/04/28 00:12:58;;;;;;;10.00;4.97;;;;;;;2.51;100.00;97007.16;5039740;28;20045;-77
2021/04/28 00:15:29;;;;;;;10.15;4.70;;;;;;;2.55;100.00;96995.91;5043037;28;20044;-77
2021/04/28 00:17:58;;;;;;;9.27;4.55;;;;;;;2.48;100.00;96993.56;5056967;28;20420;-77
2021/04/28 00:20:26;;;;;;;10.10;5.10;;;;;;;2.38;100.00;96997.09;5057350;28;20052;-77
2021/04/28 00:22:52;;;;;;;12.02;5.43;;;;;;;2.36;100.00;96979.75;5073662;28;20070;-77
2021/04/28 00:25:22;;;;;;;13.55;5.03;;;;;;;2.34;100.00;96988.06;5056160;28;20289;-76
2021/04/28 00:27:49;;;;;;;13.48;5.13;;;;;;;2.39;100.00;96988.03;5073756;28;20048;-77
2021/04/28 00:30:17;;;;;;;13.65;5.13;;;;;;;2.23;100.00;96978.53;5079073;28;20070;-75
2021/04/28 00:32:44;;;;;;;10.98;4.65;;;;;;;2.14;100.00;96988.19;5064233;28;20044;-77
2021/04/28 00:35:15;;;;;;;9.25;4.72;;;;;;;2.13;100.00;96977.78;5072809;28;20045;-76
2021/04/28 00:37:42;;;;;;;10.02;5.03;;;;;;;2.14;100.00;96990.06;5086774;28;20054;-76
2021/04/28 00:40:12;;;;;;;10.18;5.57;;;;;;;2.10;100.00;96967.66;5057557;28;20131;-76
2021/04/28 00:42:41;;;;;;;10.48;4.85;;;;;;;2.09;100.00;96984.75;5058243;28;20233;-77
2021/04/28 00:45:08;;;;;;;11.02;4.93;;;;;;;2.05;100.00;96981.84;5059382;28;20052;-76
2021/04/28 00:47:34;;;;;;;10.90;5.13;;;;;;;2.04;100.00;96974.91;5058602;28;20514;-77
2021/04/28 00:50:01;;;;;;;8.98;4.90;;;;;;;1.99;100.00;96988.28;5038816;28;20055;-75
2021/04/28 00:52:27;;;;;;;12.02;5.20;;;;;;;2.00;100.00;96979.19;5072610;28;20507;-77
2021/04/28 00:54:53;;;;;;;12.73;4.97;;;;;;;2.00;100.00;96986.41;5054692;28;20049;-77
2021/04/28 00:57:23;;;;;;;11.65;5.57;;;;;;;2.10;100.00;96968.47;5057653;28;20293;-77
2021/04/28 00:59:50;;;;;;;10.10;5.10;;;;;;;2.27;100.00;96965.44;5079317;28;20052;-77
2021/04/28 01:02:17;;;;;;;10.68;4.97;;;;;;;2.29;100.00;96968.59;5058376;28;20044;-77
2021/04/28 01:04:43;;;;;;;10.38;5.53;;;;;;;2.26;100.00;96961.16;5055876;28;20082;-77
2021/04/28 01:07:12;;;;;;;14.02;5.68;;;;;;;2.37;100.00;96966.16;5075192;28;20043;-75
2021/04/28 01:09:39;;;;;;;12.35;5.68;;;;;;;2.63;100.00;96955.25;5055944;28;20037;-76
2021/04/28 01:12:07;;;;;;;14.90;5.90;;;;;;;2.70;100.00;96958.38;5071302;28;20036;-75
2021/04/28 01:14:34;;;;;;;14.35;5.97;;;;;;;2.66;100.00;96952.78;5058274;28;20048;-75
2021/04/28 01:17:01;;;;;;;12.25;5.35;;;;;;;2.63;100.00;96956.06;5071383;28;20041;-76
2021/04/28 01:19:34;;;;;;;14.30;5.90;;;;;;;2.58;100.00;96952.63;5053682;28;20089;-75
2021/04/28 01:22:00;;;;;;;13.00;5.75;;;;;;;2.55;100.00;96947.84;5045511;28;20025;-74
2021/04/28 01:24:26;;;;;;;11.73;5.38;;;;;;;2.55;100.00;96950.50;5080586;28;20044;-76
2021/04/28 01:26:55;;;;;;;11.38;5.40;;;;;;;2.50;100.00;96954.81;5072483;28;20037;-75
2021/04/28 01:29:24;;;;;;;10.63;5.82;;;;;;;2.47;100.00;96957.25;5054586;28;20103;-76
2021/04/28 01:31:52;;;;;;;13.05;5.82;;;;;;;2.45;100.00;96938.81;5071609;28;20521;-77
2021/04/28 01:34:19;;;;;;;12.63;5.93;;;;;;;2.49;100.00;96950.56;5054748;28;20075;-76
2021/04/28 01:36:46;;;;;;;11.70;5.82;;;;;;;2.53;100.00;96941.97;5053980;28;20036;-76
2021/04/28 01:39:15;;;;;;;14.10;6.32;;;;;;;2.59;100.00;96940.84;5036339;28;20484;-76
2021/04/28 01:41:47;;;;;;;12.15;5.80;;;;;;;2.56;100.00;96949.41;5069991;28;20040;-76
2021/04/28 01:44:17;;;;;;;10.93;5.75;;;;;;;2.58;100.00;96948.09;5054145;28;20052;-77
2021/04/28 01:46:44;;;;;;;14.93;6.05;;;;;;;2.53;100.00;96943.56;5071127;28;20045;-76
2021/04/28 01:49:11;;;;;;;13.05;6.07;;;;;;;2.53;100.00;96947.31;5068868;28;20052;-76
2021/04/28 01:51:39;;;;;;;12.00;5.90;;;;;;;2.50;100.00;96936.09;5069906;28;20051;-76
2021/04/28 01:54:08;;;;;;;16.20;6.32;;;;;;;2.58;100.00;96931.25;5070871;28;20040;-76
2021/04/28 01:56:35;;;;;;;15.85;6.28;;;;;;;2.63;100.00;96937.34;5071999;28;20047;-76
2021/04/28 01:59:03;;;;;;;13.23;6.13;;;;;;;2.55;100.00;96923.78;5053616;28;20464;-76
2021/04/28 02:01:31;;;;;;;11.98;5.93;;;;;;;2.68;100.00;96929.28;5071692;28;20082;-76
2021/04/28 02:03:58;;;;;;;15.90;6.45;;;;;;;2.61;100.00;96925.34;5070313;28;20105;-75
2021/04/28 02:06:24;;;;;;;14.05;5.90;;;;;;;2.63;100.00;96915.19;5053810;28;20041;-76
2021/04/28 02:08:50;;;;;;;17.77;6.38;;;;;;;2.60;100.00;96926.41;5053359;28;20044;-76
2021/04/28 02:11:17;;;;;;;19.15;6.65;;;;;;;2.67;100.00;96922.34;5052420;28;20459;-77
2021/04/28 02:13:47;;;;;;;11.55;5.70;;;;;;;2.87;100.00;96926.69;5067089;28;20039;-74
2021/04/28 02:16:13;;;;;;;11.05;5.43;;;;;;;2.98;100.00;96926.31;5062530;28;20041;-74
2021/04/28 02:18:42;;;;;;;15.57;6.47;;;;;;;3.13;100.00;96914.66;5078313;28;20048;-75
2021/04/28 02:21:08;;;;;;;12.18;6.22;;;;;;;3.03;100.00;96923.59;5052199;28;20327;-76
2021/04/28 02:23:42;;;;;;;15.75;6.05;;;;;;;3.13;100.00;96920.00;5073290;28;20123;-75
2021/04/28 02:26:10;;;;;;;16.85;6.90;;;;;;;3.09;100.00;96929.69;5070847;28;20054;-76
2021/04/28 02:28:36;;;;;;;15.07;6.35;;;;;;;3.03;100.00;96917.44;5036424;28;20118;-76
2021/04/28 02:31:08;;;;;;;15.18;5.80;;;;;;;3.06;100.00;96916.88;5070562;28;20403;-76
2021/04/28 02:33:37;;;;;;;16.92;6.57;;;;;;;3.03;100.00;96920.09;5069213;28;20045;-77
2021/04/28 02:36:04;;;;;;;18.58;7.30;;;;;;;3.04;100.00;96911.81;5071910;28;20040;-74
2021/04/28 02:38:38;;;;;;;13.85;6.13;;;;;;;3.11;100.00;96914.13;5052339;28;20060;-76
2021/04/28 02:41:05;;;;;;;15.90;6.38;;;;;;;3.10;100.00;96904.50;5051835;28;20406;-76
2021/04/28 02:43:37;;;;;;;16.60;7.13;;;;;;;3.03;100.00;96910.22;5052951;28;20045;-76
2021/04/28 02:46:06;;;;;;;14.90;6.55;;;;;;;2.96;100.00;96908.97;5053123;28;20237;-75
2021/04/28 02:48:33;;;;;;;14.85;7.18;;;;;;;2.99;100.00;96916.41;5068138;28;20043;-75
2021/04/28 02:51:00;;;;;;;13.50;6.30;;;;;;;3.24;100.00;96909.97;5074451;28;20048;-76
2021/04/28 02:53:29;;;;;;;13.07;6.28;;;;;;;3.23;100.00;96908.41;5076965;28;20036;-77
2021/04/28 02:55:56;;;;;;;15.02;7.22;;;;;;;3.23;100.00;96909.19;5076962;28;20071;-75
2021/04/28 02:58:25;;;;;;;16.30;6.82;;;;;;;3.17;100.00;96909.53;5075721;28;20048;-75
2021/04/28 03:00:53;;;;;;;13.27;6.53;;;;;;;3.10;100.00;96896.50;5067889;28;20067;-76
2021/04/28 03:03:20;;;;;;;15.38;7.10;;;;;;;3.06;100.00;96898.97;5060920;28;20567;-76
2021/04/28 03:05:51;;;;;;;17.13;7.25;;;;;;;3.05;100.00;96904.56;5059076;28;20044;-75
2021/04/28 03:08:18;;;;;;;18.85;7.03;;;;;;;2.99;100.00;96901.16;5057080;28;20040;-76
2021/04/28 03:10:47;;;;;;;14.02;6.85;;;;;;;2.95;100.00;96892.13;5075747;28;20045;-76
2021/04/28 03:13:14;;;;;;;16.35;7.38;;;;;;;2.95;100.00;96896.66;5056531;28;20066;-76
2021/04/28 03:15:45;;;;;;;17.00;6.88;;;;;;;2.96;100.00;96901.75;5073603;28;20048;-76
2021/04/28 03:18:12;;;;;;;15.05;7.10;;;;;;;3.02;100.00;96892.56;5073318;28;20049;-76
2021/04/28 03:20:41;;;;;;;16.33;6.97;;;;;;;3.07;100.00;96899.75;5055785;28;20462;-75
2021/04/28 03:23:12;;;;;;;13.25;6.85;;;;;;;2.94;100.00;96889.75;5056258;28;20051;-76
2021/04/28 03:25:42;;;;;;;16.38;7.05;;;;;;;2.85;100.00;96894.09;5056273;28;20047;-76
2021/04/28 03:28:09;;;;;;;20.20;7.18;;;;;;;2.80;100.00;96896.84;5055142;28;20052;-76
2021/04/28 03:30:35;;;;;;;19.70;7.65;;;;;;;2.80;100.00;96915.53;5074563;28;20223;-76
2021/04/28 03:33:02;;;;;;;17.30;7.18;;;;;;;2.76;100.00;96901.16;5074286;28;20048;-76
2021/04/28 03:35:29;;;;;;;17.58;8.02;;;;;;;2.74;100.00;96904.09;5073117;28;20053;-76
2021/04/28 03:37:55;;;;;;;16.88;7.15;;;;;;;2.80;100.00;96910.19;5072123;28;20116;-76
2021/04/28 03:40:22;;;;;;;14.75;6.97;;;;;;;2.79;100.00;96901.38;5054295;28;20063;-76
2021/04/28 03:42:48;;;;;;;22.42;7.60;;;;;;;2.84;100.00;96906.66;5072590;28;20041;-76
2021/04/28 03:45:14;;;;;;;21.05;7.43;;;;;;;2.86;100.00;96903.72;5055265;28;20045;-75
2021/04/28 03:47:40;;;;;;;18.05;7.75;;;;;;;2.91;100.00;96907.16;5072180;28;20036;-76
2021/04/28 03:50:07;;;;;;;16.38;7.78;;;;;;;2.96;100.00;96903.63;5073692;28;20071;-76
2021/04/28 03:52:33;;;;;;;17.52;7.88;;;;;;;2.96;100.00;96914.31;5055631;28;20098;-74
2021/04/28 03:54:59;;;;;;;19.70;7.32;;;;;;;3.02;100.00;96903.25;5071855;28;20102;-75
2021/04/28 03:57:27;;;;;;;18.27;7.05;;;;;;;3.03;100.00;96896.03;5054012;28;20040;-76
2021/04/28 03:59:58;;;;;;;21.05;7.97;;;;;;;3.05;100.00;96908.03;5072800;28;20037;-76
2021/04/28 04:02:24;;;;;;;23.10;8.55;;;;;;;3.10;100.00;96905.31;5053621;28;20453;-76
2021/04/28 04:04:51;;;;;;;16.58;7.40;;;;;;;3.11;100.00;96903.44;5072120;28;20113;-75
2021/04/28 04:07:17;;;;;;;19.73;7.68;;;;;;;3.12;100.00;96903.16;5054067;28;20515;-76
2021/04/28 04:09:43;;;;;;;17.92;8.23;;;;;;;3.14;100.00;96905.56;5053784;28;20154;-76
2021/04/28 04:12:09;;;;;;;22.55;7.45;;;;;;;3.22;100.00;96904.94;5071730;28;20550;-75
2021/04/28 04:14:38;;;;;;;20.40;7.90;;;;;;;3.29;100.00;96908.03;5071834;28;20059;-75
2021/04/28 04:17:04;;;;;;;16.58;7.55;;;;;;;3.35;100.00;96904.25;5055558;28;20067;-76
2021/04/28 04:19:30;;;;;;;20.38;7.20;;;;;;;3.44;100.00;96909.72;5055653;28;20086;-76
2021/04/28 04:21:57;;;;;;;18.70;7.78;;;;;;;3.49;100.00;96902.44;5035979;28;20140;-76
2021/04/28 04:24:24;;;;;;;19.38;7.45;;;;;;;3.57;100.00;96906.34;5017270;28;20124;-77
2021/04/28 04:26:50;;;;;;;19.63;7.28;;;;;;;3.71;100.00;96905.38;5016462;28;20049;-76
2021/04/28 04:29:16;;;;;;;16.77;7.22;;;;;;;3.76;100.00;96909.84;5016507;28;20305;-77
2021/04/28 04:31:42;;;;;;;16.63;7.18;;;;;;;3.81;100.00;96895.59;5033557;28;20047;-75
2021/04/28 04:34:08;;;;;;;19.13;7.10;;;;;;;3.78;100.00;96911.16;5015792;28;20041;-76
2021/04/28 04:36:34;;;;;;;19.05;7.60;;;;;;;3.86;100.00;96906.22;5016453;28;20042;-76
2021/04/28 04:39:00;;;;;;;17.17;7.00;;;;;;;3.93;100.00;96912.00;5000269;28;20053;-77
2021/04/28 04:41:29;;;;;;;17.05;6.55;;;;;;;4.02;100.00;96904.94;5034169;28;20096;-77
2021/04/28 04:43:55;;;;;;;13.98;6.35;;;;;;;4.14;100.00;96903.41;5034521;28;20049;-77
2021/04/28 04:46:23;;;;;;;15.35;6.72;;;;;;;4.29;100.00;96902.34;5016811;28;20038;-77
2021/04/28 04:48:50;;;;;;;15.43;6.50;;;;;;;4.36;100.00;96906.25;5033752;28;20455;-77
2021/04/28 04:51:16;;;;;;;14.80;6.82;;;;;;;4.49;100.00;96907.38;5032623;28;20042;-77
2021/04/28 04:53:42;;;;;;;16.63;6.97;;;;;;;4.52;100.00;96900.66;5014172;28;20052;-77
2021/04/28 04:56:08;;;;;;;19.02;7.50;;;;;;;4.61;100.00;96896.22;5032476;28;20045;-77
2021/04/28 04:58:36;;;;;;;14.80;7.18;;;;;;;4.71;98.76;96896.03;5014199;28;20055;-77
2021/04/28 05:01:04;;;;;;;15.57;7.53;;;;;;;4.82;95.55;96900.13;5013717;28;20079;-77
2021/04/28 05:03:30;;;;;;;16.77;6.97;;;;;;;4.88;98.37;96890.88;5022236;28;20045;-76
2021/04/28 05:05:56;;;;;;;19.25;7.45;;;;;;;4.93;97.98;96888.09;5050155;28;20051;-76
2021/04/28 05:08:22;;;;;;;20.05;7.20;;;;;;;5.00;95.36;96893.88;5040987;28;20055;-77
2021/04/28 05:10:48;;;;;;;18.77;7.45;;;;;;;5.08;94.99;96892.41;5050891;28;20052;-77
2021/04/28 05:13:15;;;;;;;15.88;6.55;;;;;;;5.15;97.06;96884.75;5035474;28;20041;-78
2021/04/28 05:15:41;;;;;;;21.02;8.02;;;;;;;5.20;95.91;96892.69;5057297;28;20047;-80
2021/04/28 05:18:07;;;;;;;19.85;7.65;;;;;;;5.24;98.13;96896.38;5054492;28;20243;-80
2021/04/28 05:20:33;;;;;;;17.40;7.50;;;;;;;5.32;100.00;96888.41;5051273;28;20041;-78
2021/04/28 05:22:59;;;;;;;16.83;7.82;;;;;;;5.39;99.87;96885.34;5049776;28;20304;-77
2021/04/28 05:25:25;;;;;;;19.27;7.20;;;;;;;5.51;97.74;96885.63;5051731;28;20045;-79
2021/04/28 05:27:52;;;;;;;15.00;6.68;;;;;;;5.67;92.21;96886.91;5035095;28;20451;-78
2021/04/28 05:30:20;;;;;;;20.17;8.00;;;;;;;5.78;93.12;96879.41;5032395;28;20041;-77
2021/04/28 05:32:47;;;;;;;19.77;7.65;;;;;;;5.92;90.39;96878.31;5048137;28;20053;-77
2021/04/28 05:35:14;;;;;;;18.15;7.93;;;;;;;6.04;89.16;96872.41;5048976;28;20049;-77
2021/04/28 05:37:41;;;;;;;15.38;7.32;;;;;;;6.18;85.92;96862.38;5031330;28;20037;-77
2021/04/28 05:40:13;;;;;;;20.13;7.95;;;;;;;6.27;84.30;96866.72;5049199;28;20127;-78
2021/04/28 05:42:41;;;;;;;25.35;8.20;;;;;;;6.42;81.56;96867.47;5057067;28;20234;-77
2021/04/28 05:45:10;;;;;;;20.13;7.63;;;;;;;6.54;80.11;96859.63;5047566;28;20045;-77
2021/04/28 05:47:37;;;;;;;25.23;7.82;;;;;;;6.67;77.78;96859.53;5046767;28;20122;-78
2021/04/28 05:50:06;;;;;;;18.13;7.90;;;;;;;6.78;79.40;96873.53;5031255;28;20045;-77
2021/04/28 05:52:32;;;;;;;20.90;8.38;;;;;;;6.93;79.07;96867.75;5030949;28;20124;-78
2021/04/28 05:54:58;;;;;;;25.42;7.95;;;;;;;7.02;78.62;96865.88;5031240;28;20106;-77
2021/04/28 05:57:32;;;;;;;23.48;8.05;;;;;;;7.13;75.48;96869.88;5022940;28;20120;-78
2021/04/28 06:00:04;;;;;;;24.15;8.60;;;;;;;7.28;72.19;96860.56;5026874;28;20045;-77
2021/04/28 06:02:30;;;;;;;19.50;8.10;;;;;;;7.40;72.59;96866.97;5038364;28;20034;-76
2021/04/28 06:04:56;;;;;;;18.50;8.18;;;;;;;7.48;73.17;96855.41;5048328;28;20048;-76
2021/04/28 06:07:22;;;;;;;20.65;7.45;;;;;;;7.55;71.92;96860.34;5029729;28;20037;-76
2021/04/28 06:09:48;;;;;;;21.88;7.57;;;;;;;7.70;70.94;96867.16;5030500;28;20511;-77
2021/04/28 06:12:14;;;;;;;19.08;8.00;;;;;;;7.82;70.00;96861.97;5048134;28;20135;-77
2021/04/28 06:14:40;;;;;;;20.35;7.75;;;;;;;7.94;67.38;96856.75;5029744;28;20136;-76
2021/04/28 06:17:06;;;;;;;22.02;8.13;;;;;;;8.10;67.86;96863.25;5048103;28;20045;-78
2021/04/28 06:19:33;;;;;;;18.98;8.30;;;;;;;8.15;66.98;96865.78;5048829;28;20443;-77
2021/04/28 06:22:00;;;;;;;22.42;8.38;;;;;;;8.29;65.86;96857.53;5030150;28;20056;-78
2021/04/28 06:24:29;;;;;;;20.45;9.10;;;;;;;8.38;64.64;96856.44;5012978;28;20647;-79
2021/04/28 06:26:55;;;;;;;24.25;7.93;;;;;;;8.49;64.54;96862.31;5019474;28;20044;-79
2021/04/28 06:29:21;;;;;;;19.00;8.00;;;;;;;8.63;62.91;96865.59;5012864;28;20049;-78
2021/04/28 06:31:47;;;;;;;21.38;8.75;;;;;;;8.74;62.98;96867.66;5017411;28;20045;-77
2021/04/28 06:34:13;;;;;;;21.42;8.75;;;;;;;8.84;62.48;96854.91;5013627;28;20088;-78
2021/04/28 06:36:39;;;;;;;19.05;8.52;;;;;;;8.98;63.36;96860.91;5013159;28;20041;-78
2021/04/28 06:39:08;;;;;;;26.63;8.90;;;;;;;9.10;63.13;96866.41;5000168;28;20046;-78
2021/04/28 06:41:34;;;;;;;19.17;8.63;;;;;;;9.11;60.44;96854.50;5005650;28;20042;-77
2021/04/28 06:44:00;;;;;;;22.75;8.52;;;;;;;9.21;59.96;96860.31;4994181;28;20160;-77
2021/04/28 06:46:26;;;;;;;20.25;8.27;;;;;;;9.30;59.22;96861.06;5006620;28;20053;-77
2021/04/28 06:48:52;;;;;;;21.33;9.23;;;;;;;9.35;59.39;96862.78;5013945;28;20483;-77
2021/04/28 06:51:21;;;;;;;26.02;9.00;;;;;;;9.43;60.55;96858.47;5006257;28;20044;-80
2021/04/28 06:53:47;;;;;;;24.42;8.63;;;;;;;9.54;59.79;96863.19;5053571;28;20045;-78
2021/04/28 06:56:13;;;;;;;22.10;8.77;;;;;;;9.63;58.38;96866.63;5034659;28;20535;-78
2021/04/28 06:58:39;;;;;;;22.90;8.85;;;;;;;9.72;58.99;96861.97;5021363;28;20898;-77
2021/04/28 07:01:06;;;;;;;18.88;8.93;;;;;;;9.89;59.54;96861.84;5015124;28;20053;-78
2021/04/28 07:03:32;;;;;;;19.88;9.48;;;;;;;10.00;58.52;96859.53;5030488;28;20129;-77
2021/04/28 07:06:00;;;;;;;24.73;9.60;;;;;;;10.08;57.78;96872.19;5031852;28;20103;-78
2021/04/28 07:08:26;;;;;;;22.98;9.73;;;;;;;10.19;58.34;96859.09;5014234;28;20393;-78
2021/04/28 07:10:54;;;;;;;19.20;9.77;;;;;;;10.21;57.85;96859.56;5034092;28;20048;-77
2021/04/28 07:13:20;;;;;;;20.55;9.15;;;;;;;10.37;59.73;96847.00;5052257;28;20715;-76
2021/04/28 07:15:46;;;;;;;22.02;9.63;;;;;;;10.48;60.27;96846.25;5051197;28;20049;-77
2021/04/28 07:18:13;;;;;;;24.90;9.52;;;;;;;10.60;59.04;96845.53;5050311;28;20056;-77
2021/04/28 07:20:39;;;;;;;19.63;9.40;;;;;;;10.77;59.62;96839.13;5056645;28;20049;-78
2021/04/28 07:23:05;;;;;;;16.95;8.95;;;;;;;10.83;58.99;96838.59;5052212;28;20060;-77
2021/04/28 07:25:34;;;;;;;19.63;9.00;;;;;;;10.92;58.25;96839.25;5034242;28;20332;-77
2021/04/28 07:28:02;;;;;;;25.42;9.70;;;;;;;11.08;57.03;96836.69;5053301;28;20041;-77
2021/04/28 07:30:29;;;;;;;20.17;9.38;;;;;;;11.15;57.43;96840.41;5044286;28;20041;-77
2021/04/28 07:32:55;;;;;;;23.80;9.88;;;;;;;11.27;57.28;96836.94;5054501;28;20259;-79
2021/04/28 07:35:22;;;;;;;18.45;9.60;;;;;;;11.27;56.20;96843.16;5054859;28;20080;-78
2021/04/28 07:37:50;;;;;;;21.52;9.43;;;;;;;11.30;56.54;96836.28;5010771;28;20049;-79
2021/04/28 07:40:17;;;;;;;18.73;9.05;;;;;;;11.53;56.85;96836.59;5043387;28;20052;-78
2021/04/28 07:42:44;;;;;;;18.88;9.45;;;;;;;11.73;55.59;96841.13;5022380;28;20545;-78
2021/04/28 07:45:10;;;;;;;21.90;9.27;;;;;;;11.75;54.40;96834.22;5038194;28;20044;-78
2021/04/28 07:47:36;;;;;;;20.10;9.57;;;;;;;11.96;55.88;96846.84;5041385;28;20033;-78
2021/04/28 07:50:15;;;;;;;21.10;9.63;;;;;;;11.85;55.05;96836.47;5022383;28;20038;-78
2021/04/28 07:52:41;;;;;;;23.25;9.63;;;;;;;12.06;54.89;96844.44;5039384;28;20063;-77
2021/04/28 07:55:08;;;;;;;18.83;9.52;;;;;;;12.23;55.66;96841.44;5037700;28;20045;-78
2021/04/28 07:57:34;;;;;;;19.50;9.65;;;;;;;12.43;54.80;96834.25;5032167;28;20041;-77
2021/04/28 08:00:01;;;;;;;20.67;9.20;;;;;;;12.52;53.19;96844.97;5050132;28;20049;-77
2021/04/28 08:02:27;;;;;;;20.88;9.60;;;;;;;12.57;52.46;96836.56;5024917;28;20049;-78
2021/04/28 08:04:54;;;;;;;20.00;9.55;;;;;;;12.83;54.48;96839.56;5014428;28;20128;-78
2021/04/28 08:07:20;;;;;;;23.58;9.50;;;;;;;12.84;51.94;96841.97;5010939;28;20042;-78
2021/04/28 08:09:47;;;;;;;18.23;9.02;;;;;;;12.97;52.60;96838.03;5029784;28;20121;-78
2021/04/28 08:12:13;;;;;;;20.77;9.32;;;;;;;12.91;51.38;96833.19;5011978;28;20053;-78
2021/04/28 08:14:39;;;;;;;18.23;9.32;;;;;;;13.02;51.35;96836.97;5011835;28;20540;-77
2021/04/28 08:17:09;;;;;;;17.75;8.60;;;;;;;13.00;50.63;96842.78;4995383;28;20069;-77
2021/04/28 08:19:38;;;;;;;16.90;8.10;;;;;;;13.23;49.29;96839.47;5036459;28;20071;-78
2021/04/28 08:22:04;;;;;;;16.27;9.13;;;;;;;13.08;49.84;96839.09;4999797;28;525399;-78
2021/04/28 08:24:31;;;;;;;19.70;9.43;;;;;;;13.30;49.36;96837.72;5012745;28;20051;-77
2021/04/28 08:26:57;;;;;;;21.48;8.82;;;;;;;13.59;49.72;96839.97;5012527;28;20048;-79
2021/04/28 08:29:23;;;;;;;17.17;8.73;;;;;;;13.71;49.21;96831.69;5012396;28;20409;-77
2021/04/28 08:31:49;;;;;;;13.57;7.85;;;;;;;13.96;47.01;96834.94;5013050;28;20124;-78
2021/04/28 08:34:16;;;;;;;18.63;8.52;;;;;;;13.90;47.37;96841.03;5012582;28;20053;-78
2021/04/28 08:36:44;;;;;;;19.40;8.70;;;;;;;13.81;47.43;96833.06;5030150;28;20148;-78
2021/04/28 08:39:11;;;;;;;17.40;9.13;;;;;;;14.11;46.79;96830.63;5012051;28;20493;-78
2021/04/28 08:41:40;;;;;;;18.02;8.65;;;;;;;14.16;46.40;96833.06;5030414;28;20115;-78
2021/04/28 08:44:08;;;;;;;18.88;9.13;;;;;;;14.22;46.22;96821.53;5011629;28;20393;-79
2021/04/28 08:46:37;;;;;;;18.30;9.07;;;;;;;14.42;47.43;96830.53;5029733;28;20061;-79
2021/04/28 08:49:06;;;;;;;15.70;8.73;;;;;;;14.70;44.42;96830.28;5011410;28;20045;-78
2021/04/28 08:51:32;;;;;;;18.60;8.95;;;;;;;14.33;45.27;96819.03;5029524;28;20045;-78
2021/04/28 08:53:58;;;;;;;16.33;7.95;;;;;;;14.35;45.54;96833.09;5011675;28;20045;-78
2021/04/28 08:56:25;;;;;;;18.35;8.93;;;;;;;14.75;45.15;96830.78;5030538;28;20121;-79
2021/04/28 08:58:53;;;;;;;16.88;8.35;;;;;;;14.49;42.31;96821.69;5012312;28;20504;-78
2021/04/28 09:01:30;;;;;;;15.35;8.43;;;;;;;14.91;43.30;96815.13;5011792;28;20060;-78
2021/04/28 09:03:58;;;;;;;17.05;8.25;;;;;;;14.85;43.35;96821.22;5030141;28;20041;-78
2021/04/28 09:06:30;;;;;;;17.30;8.27;;;;;;;15.18;44.24;96824.13;5031263;28;20052;-78
2021/04/28 09:09:03;;;;;;;19.23;7.30;;;;;;;15.43;42.92;96811.66;5012747;28;20057;-78
2021/04/28 09:11:47;;;;;;;19.27;7.75;;;;;;;15.38;41.83;96819.41;5012152;28;20103;-78
2021/04/28 09:14:33;;;;;;;19.42;7.65;;;;;;;15.93;41.12;96809.72;5030246;28;20059;-76
2021/04/28 09:17:07;;;;;;;14.95;7.82;;;;;;;15.19;39.07;96812.06;5042493;28;20038;-76
2021/04/28 09:19:44;;;;;;;12.90;7.45;;;;;;;15.93;42.59;96805.03;5031712;28;20381;-76
2021/04/28 09:22:14;;;;;;;16.00;7.80;;;;;;;16.05;41.21;96807.53;4996592;28;20088;-78
2021/04/28 09:24:50;;;;;;;20.08;7.85;;;;;;;16.31;39.57;96806.69;5030541;28;20455;-78
2021/04/28 09:27:41;;;;;;;13.32;7.30;;;;;;;16.44;39.78;96810.00;5012267;28;20037;-78
2021/04/28 09:30:22;;;;;;;14.30;7.38;;;;;;;16.55;37.92;96803.50;5030985;28;20049;-77
2021/04/28 09:33:02;;;;;;;13.00;7.00;;;;;;;17.09;38.37;96799.34;5029751;28;20049;-77
2021/04/28 09:35:29;;;;;;;16.38;6.97;;;;;;;17.11;36.21;96808.75;5012393;28;20120;-78
2021/04/28 09:38:00;;;;;;;16.15;7.38;;;;;;;17.48;34.29;96797.72;5030715;28;20037;-79
2021/04/28 09:40:48;;;;;;;12.35;6.68;;;;;;;17.75;35.07;96806.56;5012788;28;20064;-78
2021/04/28 09:43:15;;;;;;;12.55;6.57;;;;;;;18.13;32.13;96795.03;5014653;28;20064;-78
2021/04/28 09:45:51;;;;;;;20.23;7.13;;;;;;;17.86;34.84;96791.00;4996963;28;20052;-78
2021/04/28 09:48:23;;;;;;;14.18;7.00;;;;;;;18.36;35.80;96795.53;5029788;28;20116;-77
2021/04/28 09:51:05;;;;;;;13.40;7.35;;;;;;;18.95;34.30;96791.41;5013876;28;20053;-78
2021/04/28 09:53:31;;;;;;;14.15;7.75;;;;;;;18.82;32.73;96787.47;5012265;28;20377;-78
2021/04/28 09:55:58;;;;;;;12.80;6.80;;;;;;;19.63;31.67;96784.00;5029780;28;20045;-78
2021/04/28 09:58:49;;;;;;;14.02;7.20;;;;;;;18.85;32.22;96781.22;5030262;28;20037;-76
2021/04/28 10:01:16;;;;;;;12.23;6.80;;;;;;;19.46;33.16;96776.59;5011518;28;20060;-77
2021/04/28 10:03:44;;;;;;;12.35;6.95;;;;;;;21.69;29.78;96771.56;5029021;28;20068;-77
2021/04/28 10:06:11;;;;;;;12.77;8.02;;;;;;;22.09;30.39;96772.75;5011432;28;20046;-77
2021/04/28 10:08:37;;;;;;;15.05;8.07;;;;;;;22.55;28.77;96773.00;5029204;28;20041;-79
2021/04/28 10:11:04;;;;;;;21.17;9.05;;;;;;;22.59;29.37;96781.19;5029303;28;20045;-78
2021/04/28 10:13:30;;;;;;;17.80;8.05;;;;;;;-141.50;100.00;63355.56;5029530;28;20041;-76
2021/04/28 10:16:16;;;;;;;18.85;7.88;;;;;;;-141.50;100.00;63355.56;5026541;28;20069;-77
2021/04/28 10:18:43;;;;;;;16.45;6.80;;;;;;;-141.50;100.00;63355.56;5012404;28;20524;-78
2021/04/28 10:21:09;;;;;;;11.82;7.03;;;;;;;-141.50;100.00;63355.56;4995586;28;20056;-76
2021/04/28 10:23:35;;;;;;;12.93;6.95;;;;;;;-141.50;100.00;63355.56;5011769;28;20045;-78
2021/04/28 10:26:02;;;;;;;13.35;7.15;;;;;;;-141.50;100.00;63355.56;5025555;28;20077;-78
2021/04/28 10:28:28;;;;;;;12.30;6.13;;;;;;;-141.50;100.00;63355.56;5028368;28;20493;-76
2021/04/28 10:30:55;;;;;;;11.02;6.65;;;;;;;-141.50;100.00;63355.56;5028581;28;20049;-76
2021/04/28 10:33:27;;;;;;;12.02;6.60;;;;;;;-141.50;100.00;63355.56;5010387;28;20484;-77
2021/04/28 10:36:08;;;;;;;10.30;6.13;;;;;;;-141.50;100.00;63355.56;5010852;28;20422;-77
2021/04/28 10:38:35;;;;;;;14.65;6.07;;;;;;;-141.50;100.00;63355.56;5028444;28;20078;-77
2021/04/28 10:41:01;;;;;;;8.77;5.80;;;;;;;-141.50;100.00;63355.56;5010478;28;20049;-77
2021/04/28 10:43:35;;;;;;;13.13;6.10;;;;;;;-141.50;100.00;63355.56;5010114;28;20041;-77
2021/04/28 10:46:22;;;;;;;9.63;6.45;;;;;;;-141.50;100.00;63355.56;5028353;28;20045;-78
2021/04/28 10:49:17;;;;;;;10.30;6.05;;;;;;;-141.50;100.00;63355.56;5013914;28;20056;-77
2021/04/28 10:51:45;;;;;;;10.18;5.53;;;;;;;-141.50;100.00;63355.56;5028277;28;20208;-77
2021/04/28 10:54:27;;;;;;;8.82;5.95;;;;;;;-141.50;100.00;63355.56;5011296;28;20046;-77
2021/04/28 10:57:03;;;;;;;11.85;6.13;;;;;;;-141.50;100.00;63355.56;5028180;28;20069;-77
2021/04/28 10:59:36;;;;;;;11.05;6.47;;;;;;;-141.50;100.00;63355.56;5028491;28;20038;-77
2021/04/28 11:02:10;;;;;;;9.05;6.18;;;;;;;-141.50;100.00;63355.56;5011537;28;20041;-76
2021/04/28 11:04:43;;;;;;;16.00;6.05;;;;;;;-141.50;100.00;63355.56;5011230;28;20041;-77
2021/04/28 11:07:10;;;;;;;10.85;5.82;;;;;;;-141.50;100.00;63355.56;5028620;28;20453;-78
2021/04/28 11:09:36;;;;;;;10.32;5.88;;;;;;;-141.50;100.00;63355.56;5010998;28;20092;-78
2021/04/28 11:12:02;;;;;;;10.02;5.90;;;;;;;-141.50;100.00;63355.56;5033677;28;20125;-79
2021/04/28 11:14:30;;;;;;;8.00;5.47;;;;;;;-141.50;100.00;63355.56;5033124;28;20049;-78
2021/04/28 11:17:17;;;;;;;10.38;5.45;;;;;;;-141.50;100.00;63355.56;5014326;28;20045;-76
2021/04/28 11:19:44;;;;;;;8.02;5.47;;;;;;;-141.50;100.00;63355.56;5032419;28;20045;-76
2021/04/28 11:22:13;;;;;;;9.38;5.63;;;;;;;-141.50;100.00;63355.56;5061709;23;20065;-77
2021/04/28 11:25:04;;;;;;;14.95;5.30;;;;;;;-141.50;100.00;63355.56;5054130;28;20045;-78
2021/04/28 11:27:48;;;;;;;10.40;5.63;;;;;;;-141.50;100.00;63355.56;5054472;28;20143;-78
2021/04/28 11:30:21;;;;;;;7.88;5.90;;;;;;;-141.50;100.00;63355.56;5057116;28;20041;-78